createdAt,value
2023-05-21T00:04:34.580Z,89.8
2023-05-21T00:10:27.403Z,90.6
2023-05-21T00:16:19.308Z,91.1
2023-05-21T00:22:11.815Z,91.8
2023-05-21T00:28:04.391Z,90.8
2023-05-21T00:33:56.755Z,91.5
2023-05-21T00:39:49.408Z,93
2023-05-21T00:45:44.474Z,92.3
2023-05-21T00:51:39.178Z,92.7
2023-05-21T00:57:31.628Z,93.6
2023-05-21T01:03:23.793Z,93.5
2023-05-21T01:09:16.422Z,94.7
2023-05-21T01:15:08.363Z,95.1
2023-05-21T01:21:01.518Z,93.3
2023-05-21T01:26:53.441Z,95.5
2023-05-21T01:32:46.444Z,94.8
2023-05-21T01:38:39.321Z,94.4
2023-05-21T01:44:31.844Z,95
2023-05-21T01:50:23.787Z,96
2023-05-21T01:56:16.599Z,95.7
2023-05-21T02:02:09.344Z,96.7
2023-05-21T02:08:02.003Z,96.2
2023-05-21T02:13:54.018Z,96.3
2023-05-21T02:19:45.659Z,96.4
2023-05-21T02:25:37.827Z,96.3
2023-05-21T02:31:30.347Z,96.1
2023-05-21T02:37:21.303Z,96.9
2023-05-21T02:43:16.121Z,98.1
2023-05-21T02:49:08.303Z,97.2
2023-05-21T02:55:00.807Z,96.4
2023-05-21T03:00:52.804Z,96.9
2023-05-21T03:06:45.156Z,97.6
2023-05-21T03:12:37.163Z,98.2
2023-05-21T03:18:29.138Z,98
2023-05-21T03:24:22.095Z,98.4
2023-05-21T03:30:14.393Z,99
2023-05-21T03:36:06.171Z,97.8
2023-05-21T03:41:58.234Z,98.8
2023-05-21T03:47:51.557Z,97.6
2023-05-21T03:53:43.760Z,98.4
2023-05-21T03:59:37.057Z,99.7
2023-05-21T04:05:29.627Z,98.7
2023-05-21T04:11:22.645Z,99.1
2023-05-21T04:17:14.741Z,98.3
2023-05-21T04:23:07.219Z,99.4
2023-05-21T04:28:59.132Z,100
2023-05-21T04:34:51.292Z,100
2023-05-21T04:40:43.144Z,100
2023-05-21T04:46:36.065Z,100
2023-05-21T04:52:30.669Z,100
2023-05-21T04:58:23.544Z,100
2023-05-21T05:04:16.444Z,100
2023-05-21T05:10:08.101Z,100
2023-05-21T05:16:00.522Z,100
2023-05-21T05:21:52.327Z,100
2023-05-21T05:27:44.386Z,100
2023-05-21T05:33:37.273Z,99.9
2023-05-21T05:39:29.195Z,100
2023-05-21T05:45:21.067Z,99.7
2023-05-21T05:51:13.335Z,98.7
2023-05-21T05:57:05.162Z,98.5
2023-05-21T06:02:57.016Z,98.9
2023-05-21T06:08:49.556Z,98.3
2023-05-21T06:14:46.423Z,97.7
2023-05-21T06:20:38.412Z,95.7
2023-05-21T06:26:30.087Z,93.9
2023-05-21T06:32:22.149Z,93.8
2023-05-21T06:38:15.472Z,92.5
2023-05-21T06:44:09.715Z,90.1
2023-05-21T06:50:02.369Z,89.9
2023-05-21T06:55:54.999Z,88.1
2023-05-21T07:01:47.549Z,87.1
2023-05-21T07:07:39.833Z,86.2
2023-05-21T07:13:31.653Z,88.6
2023-05-21T07:19:24.667Z,88.7
2023-05-21T07:25:16.860Z,88.8
2023-05-21T07:31:09.181Z,87
2023-05-21T07:37:01.407Z,85.6
2023-05-21T07:42:53.455Z,85.5
2023-05-21T07:48:45.516Z,84.1
2023-05-21T07:54:38.305Z,84.3
2023-05-21T08:00:32.613Z,82.7
2023-05-21T08:06:28.917Z,82.2
2023-05-21T08:12:26.761Z,81.4
2023-05-21T08:18:21.300Z,82.4
2023-05-21T08:24:12.508Z,81.8
2023-05-21T08:30:07.039Z,82.7
2023-05-21T08:35:59.321Z,82.8
2023-05-21T08:41:55.973Z,82.6
2023-05-21T08:47:50.582Z,82
2023-05-21T08:54:48.405Z,81.5
2023-05-21T09:00:41.049Z,81.6
2023-05-21T09:06:32.854Z,81.7
2023-05-21T09:12:24.832Z,82.2
2023-05-21T09:18:17.744Z,82.4
2023-05-21T09:24:09.728Z,82.6
2023-05-21T09:30:02.058Z,82.3
2023-05-21T09:35:54.015Z,81.8
2023-05-21T09:41:45.927Z,80.9
2023-05-21T09:47:37.654Z,79.8
2023-05-21T09:53:29.248Z,80
2023-05-21T09:59:21.509Z,79.1
2023-05-21T10:05:13.886Z,80.1
2023-05-21T10:11:08.307Z,79.3
2023-05-21T10:17:00.857Z,77.2
2023-05-21T10:22:52.950Z,76.9
2023-05-21T10:28:45.404Z,75.9
2023-05-21T10:34:37.520Z,75.9
2023-05-21T10:40:29.813Z,76
2023-05-21T10:46:23.292Z,75.7
2023-05-21T10:52:16.950Z,75
2023-05-21T10:58:09.530Z,74.4
2023-05-21T11:04:02.035Z,75
2023-05-21T11:09:56.733Z,74.1
2023-05-21T11:15:49.488Z,74
2023-05-21T11:21:40.969Z,74
2023-05-21T11:27:33.390Z,73.9
2023-05-21T11:33:25.439Z,72.6
2023-05-21T11:39:17.497Z,71.7
2023-05-21T11:45:09.998Z,72.3
2023-05-21T11:51:01.413Z,72
2023-05-21T11:56:53.061Z,71.1
2023-05-21T12:03:54.378Z,70.8
2023-05-21T12:09:43.923Z,70.9
2023-05-21T12:15:35.548Z,70.5
2023-05-21T12:21:27.085Z,70.1
2023-05-21T12:27:18.520Z,67.7
2023-05-21T12:33:10.017Z,67.2
2023-05-21T12:39:01.194Z,67.9
2023-05-21T12:44:52.297Z,67.1
2023-05-21T12:50:43.979Z,65.8
2023-05-21T12:56:36.047Z,67.1
2023-05-21T13:02:28.258Z,64.4
2023-05-21T13:08:19.342Z,65
2023-05-21T13:14:10.484Z,64.9
2023-05-21T13:20:02.010Z,64.6
2023-05-21T13:25:54.122Z,63.8
2023-05-21T13:31:45.364Z,64.7
2023-05-21T13:37:36.196Z,62.9
2023-05-21T13:43:28.276Z,63.1
2023-05-21T13:49:20.391Z,63.1
2023-05-21T13:55:12.645Z,63
2023-05-21T14:01:05.045Z,62.8
2023-05-21T14:06:56.955Z,63.1
2023-05-21T14:12:48.991Z,62.4
2023-05-21T14:18:47.067Z,62.5
2023-05-21T14:24:38.984Z,62.3
2023-05-21T14:30:31.639Z,61.7
2023-05-21T14:36:23.726Z,61.1
2023-05-21T14:42:16.078Z,62.1
2023-05-21T14:48:08.653Z,61.9
2023-05-21T14:54:01.095Z,61.5
2023-05-21T14:59:53.009Z,60.3
2023-05-21T15:05:44.887Z,60.9
2023-05-21T15:11:36.255Z,60.5
2023-05-21T15:17:28.424Z,60.4
2023-05-21T15:23:20.730Z,60.3
2023-05-21T15:29:12.292Z,60.6
2023-05-21T15:35:05.424Z,60.5
2023-05-21T15:40:57.629Z,61
2023-05-21T15:46:50.206Z,60.3
2023-05-21T15:52:42.868Z,60.3
2023-05-21T15:58:37.147Z,61.2
2023-05-21T16:04:28.471Z,61.7
2023-05-21T16:10:20.534Z,61.8
2023-05-21T16:16:12.548Z,61.9
2023-05-21T16:22:04.705Z,62.7
2023-05-21T16:27:59.299Z,63
2023-05-21T16:33:51.688Z,63.7
2023-05-21T16:39:42.744Z,64.1
2023-05-21T16:45:34.245Z,64.6
2023-05-21T16:51:27.007Z,65.1
2023-05-21T16:57:19.591Z,65.4
2023-05-21T17:03:11.675Z,65.9
2023-05-21T17:09:04.361Z,65.8
2023-05-21T17:14:55.954Z,65.6
2023-05-21T17:20:48.471Z,63.4
2023-05-21T17:26:38.296Z,64.4
2023-05-21T17:32:28.177Z,64.2
2023-05-21T17:38:18.296Z,63.8
2023-05-21T17:44:08.380Z,63.9
2023-05-21T17:50:00.535Z,64.6
2023-05-21T17:55:52.159Z,65.5
2023-05-21T18:01:44.368Z,66.6
2023-05-21T18:07:37.119Z,67.1
2023-05-21T18:13:28.868Z,67.8
2023-05-21T18:19:21.296Z,68.7
2023-05-21T18:25:13.984Z,69.6
2023-05-21T18:31:06.376Z,70.1
2023-05-21T18:36:58.430Z,69.6
2023-05-21T18:42:50.313Z,70.4
2023-05-21T18:48:42.423Z,70.2
2023-05-21T18:54:34.266Z,70.8
2023-05-21T19:00:26.191Z,71.3
2023-05-21T19:06:18.017Z,72.9
2023-05-21T19:12:09.557Z,72
2023-05-21T19:18:01.769Z,73.7
2023-05-21T19:23:55.451Z,74.8
2023-05-21T19:29:47.671Z,74.5
2023-05-21T19:35:40.673Z,75.1
2023-05-21T19:41:32.582Z,76.7
2023-05-21T19:47:24.690Z,77.3
2023-05-21T19:53:17.016Z,77.9
2023-05-21T19:59:09.365Z,79.7
2023-05-21T20:05:02.082Z,80.8
2023-05-21T20:10:54.696Z,81.6
2023-05-21T20:16:47.117Z,82.9
2023-05-21T20:22:39.352Z,83.7
2023-05-21T20:28:31.513Z,84.6
2023-05-21T20:34:23.692Z,85.9
2023-05-21T20:40:17.039Z,85.7
2023-05-21T20:46:09.347Z,87.4
2023-05-21T20:52:01.232Z,86.8
2023-05-21T20:57:53.141Z,88.4
2023-05-21T21:03:46.890Z,89.4
2023-05-21T21:09:41.135Z,90
2023-05-21T21:15:34.159Z,90.7
2023-05-21T21:21:27.203Z,90.7
2023-05-21T21:27:19.153Z,91.7
2023-05-21T21:33:12.121Z,91.9
2023-05-21T21:39:06.159Z,94.3
2023-05-21T21:44:58.488Z,94.2
2023-05-21T21:50:51.021Z,94.6
2023-05-21T21:56:42.709Z,94.1
2023-05-21T22:02:36.818Z,96
2023-05-21T22:08:28.345Z,95
2023-05-21T22:14:20.800Z,96.3
2023-05-21T22:20:13.194Z,97.3
2023-05-21T22:26:05.145Z,97.3
2023-05-21T22:31:57.701Z,97.2
2023-05-21T22:37:49.817Z,98.7
2023-05-21T22:43:42.391Z,98.5
2023-05-21T22:49:34.178Z,98.2
2023-05-21T22:55:27.159Z,98.7
2023-05-21T23:01:19.713Z,100
2023-05-21T23:07:12.147Z,98.8
2023-05-21T23:13:05.448Z,100
2023-05-21T23:18:57.831Z,100
2023-05-21T23:24:51.715Z,98.9
2023-05-21T23:30:44.067Z,100
2023-05-21T23:36:34.641Z,100
2023-05-21T23:42:26.848Z,100
2023-05-21T23:48:19.415Z,100
2023-05-21T23:55:20.136Z,100
